createdAt,value
2023-02-22T00:01:02.353Z,71.99
2023-02-22T00:02:11.461Z,71.88
2023-02-22T00:03:16.360Z,71.99
2023-02-22T00:04:21.570Z,72.06
2023-02-22T00:05:25.220Z,72.24
2023-02-22T00:06:31.358Z,72.39
2023-02-22T00:07:36.110Z,72.58
2023-02-22T00:08:39.435Z,72.74
2023-02-22T00:09:42.719Z,72.59
2023-02-22T00:10:46.398Z,72.55
2023-02-22T00:11:49.723Z,72.51
2023-02-22T00:12:55.743Z,72.39
2023-02-22T00:13:59.069Z,72.36
2023-02-22T00:15:02.396Z,72.45
2023-02-22T00:16:06.403Z,72.48
2023-02-22T00:17:10.065Z,72.59
2023-02-22T00:18:15.197Z,72.75
2023-02-22T00:19:18.349Z,73.05
2023-02-22T00:20:23.963Z,73.30
2023-02-22T00:21:27.220Z,73.44
2023-02-22T00:22:30.474Z,73.69
2023-02-22T00:23:33.545Z,73.84
2023-02-22T00:24:36.735Z,73.98
2023-02-22T00:25:39.862Z,74.03
2023-02-22T00:26:43.091Z,74.16
2023-02-22T00:27:51.981Z,74.26
2023-02-22T00:28:57.269Z,74.35
2023-02-22T00:30:00.705Z,74.45
2023-02-22T00:31:06.963Z,74.46
2023-02-22T00:32:10.036Z,74.14
2023-02-22T00:33:15.041Z,74.36
2023-02-22T00:34:18.222Z,74.74
2023-02-22T00:35:22.939Z,75.13
2023-02-22T00:36:25.995Z,75.31
2023-02-22T00:37:32.160Z,75.25
2023-02-22T00:38:36.073Z,75.32
2023-02-22T00:39:39.518Z,75.28
2023-02-22T00:40:43.038Z,75.38
2023-02-22T00:41:46.510Z,75.46
2023-02-22T00:42:50.499Z,75.64
2023-02-22T00:43:53.842Z,76.00
2023-02-22T00:44:56.996Z,75.95
2023-02-22T00:46:00.455Z,76.06
2023-02-22T00:47:05.062Z,76.08
2023-02-22T00:48:09.760Z,76.24
2023-02-22T00:49:13.055Z,76.31
2023-02-22T00:50:18.068Z,76.26
2023-02-22T00:51:21.461Z,76.32
2023-02-22T00:52:24.799Z,76.60
2023-02-22T00:53:28.140Z,77.09
2023-02-22T00:54:31.709Z,77.31
2023-02-22T00:55:36.593Z,77.15
2023-02-22T00:56:39.656Z,77.23
2023-02-22T00:57:43.165Z,77.30
2023-02-22T00:58:46.562Z,77.61
2023-02-22T00:59:49.803Z,78.06
2023-02-22T01:00:53.267Z,78.27
2023-02-22T01:01:56.548Z,78.08
2023-02-22T01:03:00.570Z,77.97
2023-02-22T01:04:04.179Z,78.43
2023-02-22T01:05:08.947Z,78.88
2023-02-22T01:06:12.326Z,78.97
2023-02-22T01:07:15.432Z,79.08
2023-02-22T01:08:21.058Z,79.44
2023-02-22T01:09:24.311Z,79.88
2023-02-22T01:10:31.128Z,80.06
2023-02-22T01:11:34.467Z,80.17
2023-02-22T01:12:38.521Z,80.12
2023-02-22T01:13:41.790Z,80.32
2023-02-22T01:14:44.874Z,80.59
2023-02-22T01:15:48.145Z,80.84
2023-02-22T01:16:51.620Z,80.62
2023-02-22T01:17:55.352Z,80.89
2023-02-22T01:18:58.393Z,81.42
2023-02-22T01:20:01.471Z,81.41
2023-02-22T01:21:05.753Z,81.21
2023-02-22T01:22:09.454Z,81.22
2023-02-22T01:23:17.615Z,81.02
2023-02-22T01:24:20.586Z,81.07
2023-02-22T01:25:26.704Z,81.10
2023-02-22T01:26:30.150Z,81.14
2023-02-22T01:27:33.992Z,81.36
2023-02-22T01:28:38.711Z,81.54
2023-02-22T01:29:41.781Z,81.76
2023-02-22T01:30:45.153Z,82.14
2023-02-22T01:31:54.856Z,81.87
2023-02-22T01:32:58.944Z,81.51
2023-02-22T01:34:02.070Z,81.73
2023-02-22T01:35:08.857Z,81.92
2023-02-22T01:36:12.102Z,82.45
2023-02-22T01:37:15.302Z,82.54
2023-02-22T01:38:20.466Z,82.71
2023-02-22T01:39:24.094Z,82.79
2023-02-22T01:40:34.033Z,82.39
2023-02-22T01:41:39.354Z,82.70
2023-02-22T01:42:43.029Z,82.69
2023-02-22T01:43:46.267Z,83.04
2023-02-22T01:45:28.139Z,83.52
2023-02-22T01:46:32.029Z,83.83
2023-02-22T01:47:35.086Z,83.62
2023-02-22T01:48:49.894Z,83.34
2023-02-22T01:49:53.617Z,82.88
2023-02-22T01:51:25.846Z,82.28
2023-02-22T01:52:29.011Z,82.13
2023-02-22T01:53:37.384Z,82.33
2023-02-22T01:54:46.816Z,82.41
2023-02-22T01:55:50.856Z,82.55
2023-02-22T01:57:08.314Z,82.36
2023-02-22T01:58:12.663Z,82.39
2023-02-22T01:59:15.990Z,81.77
2023-02-22T02:00:21.823Z,80.85
2023-02-22T02:01:26.626Z,80.50
2023-02-22T02:02:29.872Z,79.98
2023-02-22T02:03:36.968Z,79.91
2023-02-22T02:04:42.959Z,80.25
2023-02-22T02:05:46.623Z,80.48
2023-02-22T02:06:50.019Z,80.20
2023-02-22T02:07:53.779Z,79.47
2023-02-22T02:09:03.188Z,79.70
2023-02-22T02:10:14.798Z,79.90
2023-02-22T02:11:25.841Z,79.82
2023-02-22T02:12:33.476Z,80.16
2023-02-22T02:13:37.509Z,80.26
2023-02-22T02:14:42.673Z,80.02
2023-02-22T02:15:46.285Z,80.25
2023-02-22T02:16:52.378Z,80.29
2023-02-22T02:17:57.576Z,80.36
2023-02-22T02:19:01.735Z,80.29
2023-02-22T02:20:25.842Z,79.88
2023-02-22T02:21:50.144Z,79.39
2023-02-22T02:23:06.525Z,79.09
2023-02-22T02:24:28.772Z,78.84
2023-02-22T02:25:58.050Z,79.22
2023-02-22T02:27:23.316Z,78.90
2023-02-22T02:28:45.005Z,78.58
2023-02-22T02:29:53.495Z,78.68
2023-02-22T02:31:23.429Z,78.57
2023-02-22T02:32:45.218Z,78.26
2023-02-22T02:34:05.813Z,78.09
2023-02-22T02:35:40.053Z,77.92
2023-02-22T02:37:00.641Z,77.69
2023-02-22T02:38:21.491Z,77.79
2023-02-22T02:39:47.473Z,77.51
2023-02-22T02:41:09.239Z,77.38
2023-02-22T02:42:20.452Z,77.63
2023-02-22T02:43:44.616Z,77.73
2023-02-22T02:45:05.357Z,77.79
2023-02-22T02:46:32.523Z,77.12
2023-02-22T02:47:42.753Z,77.19
2023-02-22T02:48:51.704Z,76.99
2023-02-22T02:50:05.189Z,77.03
2023-02-22T02:51:11.782Z,77.07
2023-02-22T02:52:18.506Z,77.20
2023-02-22T02:53:26.462Z,77.25
2023-02-22T02:54:30.667Z,77.08
2023-02-22T02:55:37.138Z,77.35
2023-02-22T02:56:41.450Z,77.31
2023-02-22T02:57:45.285Z,77.63
2023-02-22T02:58:53.299Z,77.63
2023-02-22T02:59:56.367Z,77.24
2023-02-22T03:01:04.880Z,76.95
2023-02-22T03:02:42.036Z,76.92
2023-02-22T03:04:14.256Z,76.97
2023-02-22T03:05:39.483Z,77.12
2023-02-22T03:06:49.277Z,77.24
2023-02-22T03:08:11.205Z,77.56
2023-02-22T03:09:23.266Z,77.58
2023-02-22T03:10:56.939Z,77.63
2023-02-22T03:12:19.533Z,77.56
2023-02-22T03:13:45.462Z,77.75
2023-02-22T03:15:08.503Z,77.87
2023-02-22T03:16:23.576Z,77.98
2023-02-22T03:17:41.737Z,77.99
2023-02-22T03:18:55.278Z,78.15
2023-02-22T03:20:32.083Z,78.36
2023-02-22T03:21:51.909Z,78.51
2023-02-22T03:23:12.457Z,78.65
2023-02-22T03:24:24.229Z,78.73
2023-02-22T03:25:51.094Z,78.84
2023-02-22T03:26:58.008Z,78.95
2023-02-22T03:28:06.246Z,78.97
2023-02-22T03:29:13.749Z,78.99
2023-02-22T03:30:24.389Z,79.14
2023-02-22T03:31:33.439Z,78.97
2023-02-22T03:32:41.582Z,79.17
2023-02-22T03:33:51.069Z,79.08
2023-02-22T03:35:00.735Z,79.28
2023-02-22T03:36:14.813Z,79.51
2023-02-22T03:37:22.889Z,79.58
2023-02-22T03:38:30.681Z,79.79
2023-02-22T03:39:38.076Z,79.88
2023-02-22T03:40:46.228Z,79.79
2023-02-22T03:41:51.881Z,80.03
2023-02-22T03:43:02.433Z,80.22
2023-02-22T03:44:09.869Z,80.42
2023-02-22T03:45:16.064Z,80.58
2023-02-22T03:46:22.456Z,80.57
2023-02-22T03:47:36.035Z,80.72
2023-02-22T03:48:57.806Z,80.85
2023-02-22T03:50:17.686Z,80.94
2023-02-22T03:51:24.423Z,80.94
2023-02-22T03:52:27.891Z,80.99
2023-02-22T03:53:34.569Z,81.00
2023-02-22T03:54:38.036Z,81.15
2023-02-22T03:55:41.349Z,81.33
2023-02-22T03:56:52.657Z,81.38
2023-02-22T03:57:59.452Z,81.44
2023-02-22T03:59:08.688Z,81.55
2023-02-22T04:00:21.378Z,81.34
2023-02-22T04:01:24.455Z,81.48
2023-02-22T04:02:27.732Z,81.66
2023-02-22T04:03:30.833Z,81.67
2023-02-22T04:04:33.998Z,81.72
2023-02-22T04:05:37.241Z,81.78
2023-02-22T04:06:42.390Z,81.48
2023-02-22T04:07:45.491Z,81.33
2023-02-22T04:08:49.115Z,81.38
2023-02-22T04:09:52.348Z,81.46
2023-02-22T04:10:55.910Z,81.63
2023-02-22T04:11:59.031Z,81.63
2023-02-22T04:13:02.124Z,81.65
2023-02-22T04:14:05.506Z,81.77
2023-02-22T04:15:09.990Z,81.82
2023-02-22T04:16:13.225Z,81.76
2023-02-22T04:17:17.060Z,81.82
2023-02-22T04:18:22.966Z,81.90
2023-02-22T04:19:26.675Z,82.01
2023-02-22T04:20:30.339Z,82.10
2023-02-22T04:21:33.545Z,82.09
2023-02-22T04:22:36.993Z,82.14
2023-02-22T04:23:40.188Z,82.04
2023-02-22T04:24:43.212Z,82.09
2023-02-22T04:25:46.263Z,82.25
2023-02-22T04:26:50.270Z,82.27
2023-02-22T04:27:54.215Z,81.96
2023-02-22T04:28:57.504Z,82.03
2023-02-22T04:30:00.622Z,82.24
2023-02-22T04:31:04.099Z,82.39
2023-02-22T04:32:07.522Z,82.08
2023-02-22T04:33:11.207Z,81.86
2023-02-22T04:34:14.424Z,82.05
2023-02-22T04:35:17.633Z,82.20
2023-02-22T04:36:22.074Z,82.00
2023-02-22T04:37:25.227Z,82.17
2023-02-22T04:38:28.943Z,82.25
2023-02-22T04:39:32.252Z,82.04
2023-02-22T04:40:35.646Z,81.94
2023-02-22T04:41:39.218Z,82.20
2023-02-22T04:42:42.551Z,82.17
2023-02-22T04:43:45.818Z,81.87
2023-02-22T04:44:48.868Z,82.15
2023-02-22T04:45:52.074Z,82.23
2023-02-22T04:46:55.252Z,82.31
2023-02-22T04:47:58.437Z,82.46
2023-02-22T04:49:02.878Z,82.62
2023-02-22T04:50:08.206Z,82.69
2023-02-22T04:51:13.379Z,82.75
2023-02-22T04:52:16.969Z,82.65
2023-02-22T04:53:20.008Z,82.70
2023-02-22T04:54:23.113Z,82.76
2023-02-22T04:55:26.257Z,82.76
2023-02-22T04:56:29.427Z,82.79
2023-02-22T04:57:32.678Z,82.89
2023-02-22T04:58:38.286Z,82.97
2023-02-22T04:59:41.521Z,82.98
2023-02-22T05:00:44.665Z,83.00
2023-02-22T05:01:47.667Z,82.95
2023-02-22T05:02:51.348Z,82.88
2023-02-22T05:03:54.843Z,82.87
2023-02-22T05:04:57.956Z,82.95
2023-02-22T05:06:01.031Z,82.95
2023-02-22T05:07:04.853Z,82.98
2023-02-22T05:08:08.007Z,83.12
2023-02-22T05:09:11.191Z,83.10
2023-02-22T05:10:15.650Z,83.06
2023-02-22T05:11:22.315Z,83.21
2023-02-22T05:12:27.859Z,83.40
2023-02-22T05:13:31.514Z,83.40
2023-02-22T05:14:34.552Z,83.33
2023-02-22T05:15:37.679Z,83.36
2023-02-22T05:16:41.288Z,83.47
2023-02-22T05:17:45.545Z,83.46
2023-02-22T05:18:51.384Z,83.62
2023-02-22T05:19:54.530Z,83.65
2023-02-22T05:20:57.712Z,83.52
2023-02-22T05:22:01.275Z,83.53
2023-02-22T05:23:05.785Z,83.71
2023-02-22T05:24:08.811Z,83.86
2023-02-22T05:25:12.505Z,84.02
2023-02-22T05:26:17.457Z,84.05
2023-02-22T05:27:20.970Z,84.07
2023-02-22T05:28:24.391Z,84.03
2023-02-22T05:29:27.626Z,83.83
2023-02-22T05:30:34.077Z,83.92
2023-02-22T05:31:37.452Z,83.97
2023-02-22T05:32:40.464Z,84.10
2023-02-22T05:33:43.642Z,84.24
2023-02-22T05:34:46.763Z,84.40
2023-02-22T05:35:50.731Z,84.46
2023-02-22T05:36:53.994Z,84.52
2023-02-22T05:37:57.789Z,84.44
2023-02-22T05:39:01.734Z,84.39
2023-02-22T05:40:05.573Z,84.45
2023-02-22T05:41:12.067Z,84.32
2023-02-22T05:42:15.167Z,84.24
2023-02-22T05:43:18.372Z,84.51
2023-02-22T05:44:21.944Z,84.67
2023-02-22T05:45:27.550Z,84.71
2023-02-22T05:46:30.928Z,84.67
2023-02-22T05:47:34.324Z,84.63
2023-02-22T05:48:39.212Z,84.45
2023-02-22T05:49:42.692Z,84.47
2023-02-22T05:50:45.916Z,84.33
2023-02-22T05:51:48.968Z,84.10
2023-02-22T05:52:52.708Z,84.03
2023-02-22T05:53:55.757Z,84.22
2023-02-22T05:54:59.031Z,84.49
2023-02-22T05:56:02.071Z,84.61
2023-02-22T05:57:05.732Z,84.63
2023-02-22T05:58:08.972Z,84.85
2023-02-22T05:59:12.306Z,84.95
2023-02-22T06:00:24.916Z,84.94
2023-02-22T06:01:28.294Z,85.01
2023-02-22T06:02:31.411Z,84.96
2023-02-22T06:03:34.615Z,84.81
2023-02-22T06:04:37.744Z,84.83
2023-02-22T06:05:41.178Z,84.80
2023-02-22T06:06:44.303Z,84.84
2023-02-22T06:07:47.295Z,84.72
2023-02-22T06:08:50.946Z,84.64
2023-02-22T06:09:54.238Z,84.54
2023-02-22T06:10:57.526Z,84.43
2023-02-22T06:12:00.647Z,84.68
2023-02-22T06:13:05.613Z,84.54
2023-02-22T06:14:08.717Z,84.61
2023-02-22T06:15:11.848Z,84.66
2023-02-22T06:16:15.018Z,84.60
2023-02-22T06:17:20.545Z,84.63
2023-02-22T06:18:27.069Z,84.61
2023-02-22T06:19:30.081Z,84.57
2023-02-22T06:20:35.530Z,84.45
2023-02-22T06:21:38.864Z,84.46
2023-02-22T06:22:41.886Z,84.41
2023-02-22T06:23:45.184Z,84.34
2023-02-22T06:24:48.198Z,84.36
2023-02-22T06:25:51.262Z,84.21
2023-02-22T06:26:59.112Z,84.13
2023-02-22T06:28:02.774Z,84.16
2023-02-22T06:29:06.251Z,84.17
2023-02-22T06:30:13.341Z,84.21
2023-02-22T06:31:17.350Z,84.08
2023-02-22T06:32:20.569Z,83.97
2023-02-22T06:33:23.608Z,84.05
2023-02-22T06:34:26.700Z,84.17
2023-02-22T06:35:29.812Z,83.89
2023-02-22T06:36:32.916Z,83.81
2023-02-22T06:37:36.472Z,83.91
2023-02-22T06:38:39.660Z,83.87
2023-02-22T06:39:43.018Z,84.06
2023-02-22T06:40:46.240Z,84.27
2023-02-22T06:41:50.873Z,84.41
2023-02-22T06:42:54.466Z,84.70
2023-02-22T06:43:57.494Z,84.70
2023-02-22T06:45:00.572Z,84.53
2023-02-22T06:46:03.650Z,84.52
2023-02-22T06:47:06.747Z,84.59
2023-02-22T06:48:09.959Z,84.54
2023-02-22T06:49:14.081Z,84.49
2023-02-22T06:50:32.307Z,84.38
2023-02-22T06:51:37.956Z,84.32
2023-02-22T06:52:44.189Z,84.00
2023-02-22T06:53:47.162Z,83.79
2023-02-22T06:54:51.165Z,83.65
2023-02-22T06:55:55.488Z,83.94
2023-02-22T06:56:58.973Z,83.87
2023-02-22T06:58:03.839Z,84.21
2023-02-22T06:59:08.707Z,84.13
2023-02-22T07:00:12.356Z,83.91
2023-02-22T07:01:16.358Z,83.58
2023-02-22T07:02:20.049Z,83.31
2023-02-22T07:03:23.108Z,83.40
2023-02-22T07:04:26.303Z,83.68
2023-02-22T07:05:29.578Z,84.11
2023-02-22T07:06:32.669Z,84.00
2023-02-22T07:07:35.898Z,83.71
2023-02-22T07:08:39.016Z,83.47
2023-02-22T07:09:43.404Z,83.48
2023-02-22T07:10:50.692Z,83.51
2023-02-22T07:11:53.813Z,83.53
2023-02-22T07:12:56.947Z,83.60
2023-02-22T07:13:59.907Z,83.54
2023-02-22T07:15:03.021Z,83.51
2023-02-22T07:16:06.406Z,83.44
2023-02-22T07:17:09.613Z,83.39
2023-02-22T07:18:14.274Z,83.31
2023-02-22T07:19:17.339Z,83.28
2023-02-22T07:20:21.793Z,83.19
2023-02-22T07:21:25.049Z,83.21
2023-02-22T07:22:28.383Z,83.29
2023-02-22T07:23:31.512Z,83.41
2023-02-22T07:24:35.492Z,83.18
2023-02-22T07:25:38.596Z,83.16
2023-02-22T07:26:42.788Z,83.09
2023-02-22T07:27:46.594Z,83.00
2023-02-22T07:28:50.192Z,82.90
2023-02-22T07:29:53.479Z,82.78
2023-02-22T07:30:56.827Z,82.61
2023-02-22T07:32:00.262Z,82.49
2023-02-22T07:33:06.523Z,82.32
2023-02-22T07:34:09.714Z,82.20
2023-02-22T07:35:22.804Z,81.95
2023-02-22T07:36:26.048Z,81.61
2023-02-22T07:37:30.018Z,81.16
2023-02-22T07:38:33.047Z,80.45
2023-02-22T07:39:38.203Z,79.65
2023-02-22T07:40:42.003Z,79.33
2023-02-22T07:41:45.066Z,78.96
2023-02-22T07:43:24.388Z,78.95
2023-02-22T07:44:27.361Z,78.95
2023-02-22T07:45:34.985Z,79.08
2023-02-22T07:46:38.218Z,78.73
2023-02-22T07:47:41.669Z,78.64
2023-02-22T07:48:45.400Z,78.47
2023-02-22T07:49:48.692Z,78.07
2023-02-22T07:50:51.993Z,77.85
2023-02-22T07:51:55.335Z,77.95
2023-02-22T07:53:02.964Z,78.03
2023-02-22T07:54:06.209Z,77.17
2023-02-22T07:55:09.199Z,77.41
2023-02-22T07:56:12.471Z,77.66
2023-02-22T07:57:16.167Z,77.66
2023-02-22T07:58:22.268Z,77.71
2023-02-22T07:59:25.479Z,77.62
2023-02-22T08:00:34.716Z,77.85
2023-02-22T08:01:37.713Z,77.84
2023-02-22T08:02:44.493Z,77.86
2023-02-22T08:03:47.968Z,77.89
2023-02-22T08:04:51.247Z,77.80
2023-02-22T08:05:58.008Z,77.67
2023-02-22T08:07:01.338Z,77.52
2023-02-22T08:08:06.422Z,77.32
2023-02-22T08:09:09.680Z,77.04
2023-02-22T08:10:15.675Z,76.87
2023-02-22T08:11:19.199Z,76.36
2023-02-22T08:12:22.564Z,75.88
2023-02-22T08:13:25.900Z,75.62
2023-02-22T08:14:28.991Z,75.58
2023-02-22T08:15:40.560Z,75.82
2023-02-22T08:16:43.543Z,75.94
2023-02-22T08:17:47.138Z,75.77
2023-02-22T08:18:50.442Z,75.53
2023-02-22T08:19:53.598Z,74.80
2023-02-22T08:20:57.888Z,73.91
2023-02-22T08:22:01.166Z,73.41
2023-02-22T08:23:05.293Z,73.52
2023-02-22T08:24:08.642Z,73.62
2023-02-22T08:25:12.996Z,73.58
2023-02-22T08:26:18.791Z,73.10
2023-02-22T08:27:29.708Z,73.03
2023-02-22T08:28:32.875Z,72.00
2023-02-22T08:29:35.901Z,70.62
2023-02-22T08:30:40.655Z,70.17
2023-02-22T08:31:51.143Z,69.51
2023-02-22T08:32:54.743Z,69.32
2023-02-22T08:33:57.858Z,69.57
2023-02-22T08:35:01.591Z,69.00
2023-02-22T08:36:04.987Z,67.32
2023-02-22T08:37:08.061Z,67.05
2023-02-22T08:38:23.823Z,66.95
2023-02-22T08:39:26.840Z,67.53
2023-02-22T08:40:33.450Z,68.69
2023-02-22T08:41:36.684Z,68.68
2023-02-22T08:42:39.863Z,68.87
2023-02-22T08:43:43.031Z,68.79
2023-02-22T08:44:46.198Z,67.53
2023-02-22T08:45:49.786Z,67.53
2023-02-22T08:46:52.883Z,68.28
2023-02-22T08:47:55.960Z,67.96
2023-02-22T08:48:58.986Z,68.06
2023-02-22T08:50:02.086Z,68.20
2023-02-22T08:51:05.360Z,68.38
2023-02-22T08:52:11.899Z,68.37
2023-02-22T08:53:16.716Z,68.19
2023-02-22T08:54:19.774Z,68.08
2023-02-22T08:55:25.718Z,68.34
2023-02-22T08:56:30.148Z,68.25
2023-02-22T08:57:33.292Z,67.47
2023-02-22T08:58:37.031Z,67.55
2023-02-22T08:59:40.486Z,67.73
2023-02-22T09:00:45.026Z,67.35
2023-02-22T09:01:48.460Z,67.15
2023-02-22T09:02:55.117Z,67.68
2023-02-22T09:03:58.076Z,67.88
2023-02-22T09:05:01.269Z,67.67
2023-02-22T09:06:07.529Z,65.16
2023-02-22T09:07:11.701Z,63.02
2023-02-22T09:08:16.443Z,63.22
2023-02-22T09:09:21.706Z,64.11
2023-02-22T09:10:29.516Z,64.71
2023-02-22T09:11:32.834Z,64.93
2023-02-22T09:12:35.917Z,64.21
2023-02-22T09:13:39.108Z,64.56
2023-02-22T09:14:43.524Z,64.51
2023-02-22T09:15:46.808Z,64.96
2023-02-22T09:16:50.345Z,65.00
2023-02-22T09:17:54.454Z,64.36
2023-02-22T09:18:57.566Z,64.18
2023-02-22T09:20:00.766Z,63.93
2023-02-22T09:21:05.060Z,63.75
2023-02-22T09:22:08.200Z,62.85
2023-02-22T09:23:11.548Z,62.04
2023-02-22T09:24:14.652Z,61.14
2023-02-22T09:25:21.270Z,60.61
2023-02-22T09:26:24.436Z,61.30
2023-02-22T09:27:30.693Z,60.46
2023-02-22T09:28:33.817Z,61.33
2023-02-22T09:29:37.486Z,60.43
2023-02-22T09:30:43.800Z,59.50
2023-02-22T09:31:47.262Z,57.55
2023-02-22T09:32:55.582Z,55.46
2023-02-22T09:33:58.780Z,56.17
2023-02-22T09:35:01.890Z,57.15
2023-02-22T09:36:07.380Z,56.88
2023-02-22T09:37:10.461Z,56.63
2023-02-22T09:38:19.078Z,57.13
2023-02-22T09:39:22.297Z,58.51
2023-02-22T09:40:30.415Z,59.28
2023-02-22T09:41:47.989Z,60.40
2023-02-22T09:43:08.753Z,60.95
2023-02-22T09:44:36.354Z,62.22
2023-02-22T09:45:45.481Z,62.41
2023-02-22T09:46:50.147Z,62.69
2023-02-22T09:48:01.303Z,62.46
2023-02-22T09:49:21.287Z,60.84
2023-02-22T09:50:28.852Z,60.35
2023-02-22T09:51:49.607Z,60.58
2023-02-22T09:53:06.046Z,60.61
2023-02-22T09:54:44.227Z,60.72
2023-02-22T09:55:53.614Z,59.20
2023-02-22T09:57:00.833Z,59.06
2023-02-22T09:58:14.566Z,58.83
2023-02-22T09:59:24.865Z,59.36
2023-02-22T10:00:35.247Z,59.55
2023-02-22T10:01:46.059Z,59.58
2023-02-22T10:03:21.398Z,58.74
2023-02-22T10:04:37.000Z,57.46
2023-02-22T10:05:43.172Z,58.03
2023-02-22T10:07:06.343Z,58.31
2023-02-22T10:08:19.320Z,57.27
2023-02-22T10:09:28.264Z,55.12
2023-02-22T10:10:34.780Z,55.43
2023-02-22T10:11:53.346Z,55.81
2023-02-22T10:13:33.093Z,55.74
2023-02-22T10:14:48.586Z,55.50
2023-02-22T10:16:17.929Z,56.29
2023-02-22T10:17:50.469Z,56.38
2023-02-22T10:19:03.901Z,57.52
2023-02-22T10:20:18.724Z,58.89
2023-02-22T10:21:38.354Z,60.27
2023-02-22T10:22:45.954Z,61.60
2023-02-22T10:24:02.471Z,62.36
2023-02-22T10:25:22.416Z,62.68
2023-02-22T10:26:37.009Z,62.81
2023-02-22T10:27:49.148Z,63.73
2023-02-22T10:29:00.994Z,64.01
2023-02-22T10:30:25.343Z,63.88
2023-02-22T10:31:36.966Z,63.79
2023-02-22T10:32:46.806Z,64.26
2023-02-22T10:33:57.412Z,64.63
2023-02-22T10:35:05.777Z,65.02
2023-02-22T10:36:21.690Z,65.48
2023-02-22T10:37:34.707Z,65.65
2023-02-22T10:38:39.442Z,65.87
2023-02-22T10:39:44.956Z,66.10
2023-02-22T10:41:02.461Z,65.60
2023-02-22T10:42:09.537Z,65.29
2023-02-22T10:43:12.972Z,64.74
2023-02-22T10:44:16.395Z,64.72
2023-02-22T10:45:33.048Z,64.28
2023-02-22T10:46:37.029Z,64.85
2023-02-22T10:47:41.123Z,65.48
2023-02-22T10:48:47.893Z,65.82
2023-02-22T10:49:59.678Z,66.05
2023-02-22T10:51:05.526Z,66.18
2023-02-22T10:52:22.686Z,66.36
2023-02-22T10:53:28.055Z,66.28
2023-02-22T10:54:41.549Z,66.24
2023-02-22T10:56:15.940Z,65.45
2023-02-22T10:57:29.561Z,65.44
2023-02-22T10:58:46.402Z,65.65
2023-02-22T10:59:52.348Z,65.77
2023-02-22T11:00:55.674Z,65.06
2023-02-22T11:01:59.390Z,64.67
2023-02-22T11:03:17.008Z,64.94
2023-02-22T11:04:22.152Z,65.49
2023-02-22T11:05:38.193Z,65.62
2023-02-22T11:06:45.168Z,65.67
2023-02-22T11:07:48.657Z,65.76
2023-02-22T11:08:52.684Z,66.59
2023-02-22T11:10:02.089Z,66.78
2023-02-22T11:11:26.021Z,67.03
2023-02-22T11:12:39.953Z,66.97
2023-02-22T11:13:43.191Z,66.85
2023-02-22T11:14:46.398Z,66.65
2023-02-22T11:15:50.468Z,66.59
2023-02-22T11:16:57.224Z,66.64
2023-02-22T11:18:02.497Z,66.61
2023-02-22T11:19:33.133Z,66.35
2023-02-22T11:20:39.599Z,66.17
2023-02-22T11:21:43.220Z,66.24
2023-02-22T11:22:46.473Z,66.60
2023-02-22T11:23:50.878Z,66.44
2023-02-22T11:24:59.511Z,66.55
2023-02-22T11:26:21.029Z,66.48
2023-02-22T11:27:43.652Z,65.93
2023-02-22T11:28:56.322Z,66.26
2023-02-22T11:30:22.207Z,65.84
2023-02-22T11:31:29.369Z,65.92
2023-02-22T11:32:32.989Z,65.66
2023-02-22T11:33:37.730Z,65.72
2023-02-22T11:34:43.075Z,65.64
2023-02-22T11:35:58.492Z,65.67
2023-02-22T11:37:30.682Z,65.77
2023-02-22T11:38:37.508Z,66.23
2023-02-22T11:39:44.142Z,66.38
2023-02-22T11:41:04.666Z,66.39
2023-02-22T11:42:28.611Z,66.36
2023-02-22T11:43:32.044Z,66.08
2023-02-22T11:44:35.263Z,65.37
2023-02-22T11:45:49.868Z,65.73
2023-02-22T11:47:07.303Z,65.94
2023-02-22T11:48:21.173Z,66.41
2023-02-22T11:49:34.174Z,66.55
2023-02-22T11:50:52.155Z,66.52
2023-02-22T11:52:08.098Z,66.67
2023-02-22T11:53:39.204Z,66.69
2023-02-22T11:54:59.124Z,66.61
2023-02-22T11:56:37.189Z,66.39
2023-02-22T11:58:06.058Z,65.97
2023-02-22T11:59:44.760Z,65.56
2023-02-22T12:01:17.571Z,65.85
2023-02-22T12:02:31.841Z,65.83
2023-02-22T12:03:46.499Z,66.25
2023-02-22T12:05:08.374Z,66.00
2023-02-22T12:06:25.868Z,65.95
2023-02-22T12:07:48.767Z,66.26
2023-02-22T12:09:24.292Z,66.04
2023-02-22T12:10:55.553Z,65.62
2023-02-22T12:12:16.628Z,65.92
2023-02-22T12:13:37.761Z,66.10
2023-02-22T12:14:56.509Z,65.92
2023-02-22T12:16:13.247Z,66.11
2023-02-22T12:18:00.117Z,66.44
2023-02-22T12:19:25.421Z,66.52
2023-02-22T12:20:42.790Z,66.79
2023-02-22T12:21:53.346Z,66.87
2023-02-22T12:23:20.641Z,66.98
2023-02-22T12:24:31.020Z,66.50
2023-02-22T12:25:41.699Z,66.70
2023-02-22T12:27:09.929Z,66.89
2023-02-22T12:28:24.230Z,66.69
2023-02-22T12:29:37.799Z,66.47
2023-02-22T12:30:45.769Z,66.23
2023-02-22T12:31:55.176Z,65.87
2023-02-22T12:33:01.268Z,66.13
2023-02-22T12:34:30.520Z,66.50
2023-02-22T12:35:37.593Z,66.60
2023-02-22T12:36:47.275Z,66.50
2023-02-22T12:38:02.040Z,66.69
2023-02-22T12:39:23.688Z,66.41
2023-02-22T12:40:47.728Z,66.49
2023-02-22T12:41:54.984Z,66.51
2023-02-22T12:43:13.087Z,66.47
2023-02-22T12:44:25.514Z,66.02
2023-02-22T12:45:37.469Z,65.63
2023-02-22T12:47:00.756Z,65.71
2023-02-22T12:48:31.666Z,65.94
2023-02-22T12:50:17.506Z,66.02
2023-02-22T12:51:26.343Z,66.46
2023-02-22T12:53:01.867Z,66.38
2023-02-22T12:54:21.484Z,66.21
2023-02-22T12:55:29.180Z,66.58
2023-02-22T12:56:37.574Z,66.63
2023-02-22T12:58:07.087Z,66.68
2023-02-22T12:59:35.736Z,66.91
2023-02-22T13:01:05.895Z,67.01
2023-02-22T13:02:17.766Z,66.78
2023-02-22T13:03:36.032Z,67.02
2023-02-22T13:04:38.900Z,67.10
2023-02-22T13:05:42.451Z,67.30
2023-02-22T13:07:00.227Z,67.04
2023-02-22T13:08:27.077Z,67.33
2023-02-22T13:09:35.750Z,67.58
2023-02-22T13:11:02.094Z,67.87
2023-02-22T13:12:11.252Z,67.87
2023-02-22T13:13:14.096Z,67.76
2023-02-22T13:14:45.644Z,67.79
2023-02-22T13:16:05.758Z,68.03
2023-02-22T13:17:33.166Z,68.33
2023-02-22T13:19:26.259Z,67.89
2023-02-22T13:20:41.056Z,67.88
2023-02-22T13:22:09.537Z,68.00
2023-02-22T13:23:29.545Z,67.93
2023-02-22T13:24:57.598Z,67.90
2023-02-22T13:26:25.271Z,68.09
2023-02-22T13:27:54.673Z,68.00
2023-02-22T13:29:08.921Z,67.56
2023-02-22T13:30:39.246Z,67.77
2023-02-22T13:32:03.103Z,67.96
2023-02-22T13:33:22.111Z,68.03
2023-02-22T13:34:45.254Z,67.89
2023-02-22T13:35:53.966Z,67.47
2023-02-22T13:37:18.191Z,67.19
2023-02-22T13:38:30.036Z,66.96
2023-02-22T13:39:42.202Z,66.70
2023-02-22T13:41:12.435Z,65.87
2023-02-22T13:42:39.756Z,66.05
2023-02-22T13:44:02.643Z,66.47
2023-02-22T13:45:35.204Z,66.26
2023-02-22T13:46:50.866Z,66.08
2023-02-22T13:48:05.963Z,66.46
2023-02-22T13:49:26.973Z,65.91
2023-02-22T13:50:51.064Z,65.88
2023-02-22T13:51:56.927Z,63.37
2023-02-22T13:53:04.059Z,63.88
2023-02-22T13:54:16.509Z,63.44
2023-02-22T13:55:28.342Z,62.75
2023-02-22T13:56:31.224Z,63.43
2023-02-22T13:57:49.998Z,63.56
2023-02-22T13:59:00.470Z,62.54
2023-02-22T14:00:15.757Z,62.99
2023-02-22T14:01:41.552Z,62.90
2023-02-22T14:03:15.605Z,62.36
2023-02-22T14:04:27.743Z,61.34
2023-02-22T14:05:42.999Z,61.22
2023-02-22T14:06:46.127Z,61.55
2023-02-22T14:07:50.341Z,62.22
2023-02-22T14:08:53.306Z,61.07
2023-02-22T14:09:57.920Z,61.70
2023-02-22T14:11:07.678Z,61.83
2023-02-22T14:12:10.551Z,61.55
2023-02-22T14:13:18.485Z,61.98
2023-02-22T14:14:21.466Z,61.75
2023-02-22T14:15:30.251Z,61.51
2023-02-22T14:16:34.476Z,62.07
2023-02-22T14:17:39.727Z,62.31
2023-02-22T14:18:46.216Z,61.46
2023-02-22T14:20:30.261Z,61.49
2023-02-22T14:21:37.151Z,62.31
2023-02-22T14:22:40.066Z,62.38
2023-02-22T14:23:54.269Z,62.53
2023-02-22T14:24:58.473Z,62.32
2023-02-22T14:26:31.452Z,62.07
2023-02-22T14:27:41.666Z,62.22
2023-02-22T14:29:15.789Z,62.12
2023-02-22T14:30:31.100Z,62.27
2023-02-22T14:31:37.320Z,61.97
2023-02-22T14:32:40.733Z,61.66
2023-02-22T14:33:59.481Z,61.37
2023-02-22T14:35:25.586Z,61.81
2023-02-22T14:36:35.230Z,61.99
2023-02-22T14:37:41.550Z,61.10
2023-02-22T14:38:46.149Z,61.03
2023-02-22T14:40:13.219Z,60.66
2023-02-22T14:41:17.918Z,60.71
2023-02-22T14:42:40.731Z,60.68
2023-02-22T14:43:45.723Z,61.15
2023-02-22T14:44:48.969Z,61.55
2023-02-22T14:45:56.827Z,61.81
2023-02-22T14:47:05.211Z,61.69
2023-02-22T14:48:39.582Z,61.36
2023-02-22T14:49:46.805Z,59.97
2023-02-22T14:50:54.596Z,60.42